Time;durP1;ratioP1;P1;durP2;ratioP2;P2;SDS_P1;SDS_P2;PMS_P1;PMS_P2;Temp;Humidity;BMP_temperature;BMP_pressure;BME280_temperature;BME280_humidity;BME280_pressure;Samples;Min_cycle;Max_cycle;Signal;HPM_P1;HPM_P2
2024/03/24 00:02:12;;;;;;;7.60;4.30;;;;;;;4.49;98.13;98082.52;269961;1269;22558;-89
2024/03/24 00:08:14;;;;;;;12.30;5.60;;;;;;;4.48;98.03;98092.93;272560;1269;22250;-89
2024/03/24 00:14:16;;;;;;;11.80;5.70;;;;;;;4.48;97.94;98093.86;272843;1270;23302;-88
2024/03/24 00:20:18;;;;;;;11.30;5.20;;;;;;;4.47;98.09;98079.52;272596;1269;22373;-88
2024/03/24 00:26:20;;;;;;;12.80;5.60;;;;;;;4.47;97.96;98061.25;271201;1269;23383;-90
2024/03/24 00:32:24;;;;;;;9.40;5.00;;;;;;;4.50;97.70;98035.44;272742;1269;22503;-90
2024/03/24 00:38:26;;;;;;;15.60;7.00;;;;;;;4.50;97.45;97994.25;272521;1269;22364;-89
2024/03/24 00:44:28;;;;;;;17.20;5.50;;;;;;;4.48;96.93;97971.98;272209;1269;170874;-89
2024/03/24 00:50:30;;;;;;;13.70;6.50;;;;;;;4.42;97.03;97981.73;269972;1259;22269;-89
2024/03/24 00:56:31;;;;;;;15.40;6.40;;;;;;;4.34;97.28;97977.85;270302;1270;22229;-90
2024/03/24 01:02:34;;;;;;;15.00;5.90;;;;;;;4.26;97.07;97954.95;270934;1269;22551;-89
2024/03/24 01:08:36;;;;;;;11.00;5.60;;;;;;;4.18;97.11;97961.73;271678;1269;23588;-89
2024/03/24 01:14:39;;;;;;;12.80;5.40;;;;;;;4.04;97.35;97956.82;272543;1269;22295;-89
2024/03/24 01:20:41;;;;;;;16.80;6.60;;;;;;;3.91;97.33;97959.71;272499;1269;22284;-90
2024/03/24 01:26:43;;;;;;;14.30;5.40;;;;;;;3.73;97.84;97974.96;272196;1269;22526;-88
2024/03/24 01:32:45;;;;;;;11.40;6.00;;;;;;;3.66;98.47;97979.06;272606;1269;23227;-90
2024/03/24 01:38:47;;;;;;;13.60;6.10;;;;;;;3.66;98.31;97976.22;272778;1259;22356;-88
2024/03/24 01:44:49;;;;;;;12.80;5.50;;;;;;;3.69;98.58;97962.34;272724;1270;22395;-89
2024/03/24 01:50:51;;;;;;;11.10;5.80;;;;;;;3.75;98.68;97961.70;272606;1269;22394;-89
2024/03/24 01:56:53;;;;;;;13.30;5.80;;;;;;;3.78;99.13;97960.64;271974;1269;22334;-89
2024/03/24 02:02:55;;;;;;;10.40;5.10;;;;;;;3.78;99.14;97980.11;270505;1269;23769;-88
2024/03/24 02:08:56;;;;;;;12.30;5.40;;;;;;;3.76;98.55;97985.86;271242;1269;22423;-89
2024/03/24 02:14:58;;;;;;;10.60;4.60;;;;;;;3.75;98.79;97992.95;271884;1270;22188;-88
2024/03/24 02:21:00;;;;;;;8.30;4.50;;;;;;;3.79;99.63;97985.40;271072;1269;22563;-88
2024/03/24 02:27:02;;;;;;;11.00;4.50;;;;;;;3.82;99.71;97987.61;272408;1270;22227;-89
2024/03/24 02:33:04;;;;;;;9.20;3.80;;;;;;;3.80;99.55;97985.48;272468;1270;22259;-88
2024/03/24 02:39:06;;;;;;;7.70;3.60;;;;;;;3.73;99.43;97973.97;271370;1269;22604;-88
2024/03/24 02:45:11;;;;;;;9.20;4.10;;;;;;;3.66;99.54;97959.42;271303;1269;23495;-90
2024/03/24 02:51:13;;;;;;;9.40;4.00;;;;;;;3.58;99.90;97958.95;272712;1263;22261;-89
2024/03/24 02:57:15;;;;;;;11.40;5.20;;;;;;;3.52;100.00;97953.95;272487;1269;22288;-89
2024/03/24 03:03:17;;;;;;;10.00;5.10;;;;;;;3.47;100.00;97951.73;272607;1264;22859;-89
2024/03/24 03:09:20;;;;;;;10.60;5.60;;;;;;;3.48;100.00;97959.02;272654;1254;23515;-90
2024/03/24 03:15:22;;;;;;;11.80;5.20;;;;;;;3.44;100.00;97967.38;272446;1269;23602;-90
2024/03/24 03:21:25;;;;;;;9.40;5.90;;;;;;;3.41;100.00;97967.08;272262;1269;22376;-90
2024/03/24 03:27:27;;;;;;;8.90;4.80;;;;;;;3.39;100.00;97961.53;272382;1260;22563;-89
2024/03/24 03:33:28;;;;;;;10.10;5.50;;;;;;;3.40;100.00;97949.42;272260;1270;22344;-89
2024/03/24 03:39:31;;;;;;;11.00;5.30;;;;;;;3.41;100.00;97938.64;271781;1269;22322;-89
2024/03/24 03:45:33;;;;;;;9.70;5.30;;;;;;;3.38;100.00;97926.05;271804;1270;22641;-89
2024/03/24 03:51:37;;;;;;;12.80;6.30;;;;;;;3.25;100.00;97922.74;271551;1269;22323;-89
2024/03/24 03:57:39;;;;;;;13.00;5.10;;;;;;;3.07;100.00;97920.25;272739;1270;22364;-88
2024/03/24 04:03:41;;;;;;;13.40;5.80;;;;;;;2.98;100.00;97920.11;272756;1269;22543;-88
2024/03/24 04:09:43;;;;;;;10.50;5.40;;;;;;;2.89;100.00;97926.75;272444;1269;22576;-89
2024/03/24 04:15:45;;;;;;;8.70;4.60;;;;;;;2.81;100.00;97934.38;272015;1269;23152;-89
2024/03/24 04:21:47;;;;;;;11.20;4.90;;;;;;;2.81;100.00;97930.36;271994;1270;22385;-88
2024/03/24 04:27:49;;;;;;;9.90;5.10;;;;;;;2.82;100.00;97915.64;272243;1270;22390;-89
2024/03/24 04:33:51;;;;;;;13.70;6.80;;;;;;;2.87;100.00;97902.92;272609;1269;22317;-88
2024/03/24 04:39:53;;;;;;;12.80;6.50;;;;;;;2.88;100.00;97910.90;272651;1270;23047;-88
2024/03/24 04:46:05;;;;;;;13.10;6.10;;;;;;;2.82;100.00;97923.81;264372;1269;10002190;-89
2024/03/24 04:52:12;;;;;;;14.20;5.80;;;;;;;2.82;100.00;97940.82;272578;1269;22415;-89
2024/03/24 04:58:19;;;;;;;12.50;6.00;;;;;;;2.85;100.00;97949.29;270110;1269;22577;-88
2024/03/24 05:04:21;;;;;;;15.10;7.90;;;;;;;2.90;100.00;97945.48;271618;1270;22687;-88
2024/03/24 05:10:33;;;;;;;14.90;8.20;;;;;;;2.98;100.00;97944.13;271887;1269;23920;-89
2024/03/24 05:16:37;;;;;;;19.40;7.90;;;;;;;3.07;100.00;97938.98;272805;1270;22361;-88
2024/03/24 05:22:39;;;;;;;13.90;7.30;;;;;;;3.15;100.00;97940.98;272375;1269;22365;-88
2024/03/24 05:28:41;;;;;;;12.60;6.50;;;;;;;3.26;100.00;97934.41;271761;1270;23177;-88
2024/03/24 05:34:43;;;;;;;12.30;6.70;;;;;;;3.33;100.00;97931.80;272652;1269;23622;-88
2024/03/24 05:40:46;;;;;;;14.60;8.60;;;;;;;3.35;100.00;97931.77;272651;1269;22365;-88
2024/03/24 05:46:48;;;;;;;17.40;8.70;;;;;;;3.36;100.00;97927.92;272480;1269;23453;-89
2024/03/24 05:52:51;;;;;;;15.00;8.30;;;;;;;3.41;100.00;97924.62;271743;1270;23342;-88
2024/03/24 05:58:52;;;;;;;15.90;7.70;;;;;;;3.54;100.00;97919.66;272338;1269;22407;-89
2024/03/24 06:04:54;;;;;;;19.00;9.00;;;;;;;3.89;100.00;97919.77;272555;1270;22258;-88
2024/03/24 06:10:56;;;;;;;15.20;8.00;;;;;;;4.07;100.00;97920.52;271116;1272;22491;-89
2024/03/24 06:16:58;;;;;;;13.70;8.10;;;;;;;4.40;100.00;97924.77;270423;1270;23484;-88
2024/03/24 06:23:02;;;;;;;14.90;7.60;;;;;;;4.70;100.00;97927.15;271646;1270;22577;-88
2024/03/24 06:29:05;;;;;;;12.60;7.00;;;;;;;4.94;100.00;97929.57;271902;1270;23640;-89
2024/03/24 06:35:11;;;;;;;12.00;7.10;;;;;;;5.20;100.00;97929.27;271923;1270;22409;-89
2024/03/24 06:41:13;;;;;;;12.50;7.00;;;;;;;5.41;100.00;97929.35;272521;1270;22125;-89
2024/03/24 06:47:14;;;;;;;12.40;6.70;;;;;;;5.60;100.00;97933.58;272463;1268;22366;-90
2024/03/24 06:53:17;;;;;;;16.80;9.00;;;;;;;5.76;100.00;97940.32;271812;1269;22321;-90
2024/03/24 06:59:19;;;;;;;13.50;8.40;;;;;;;5.81;100.00;97952.89;271655;1270;22601;-89
2024/03/24 07:05:21;;;;;;;15.10;8.20;;;;;;;5.73;100.00;97957.87;271204;1270;22566;-90
2024/03/24 07:11:24;;;;;;;14.50;9.00;;;;;;;5.72;100.00;97964.07;270030;1270;23166;-89
2024/03/24 07:17:26;;;;;;;11.50;6.40;;;;;;;5.77;100.00;97961.73;271261;1269;22273;-89
2024/03/24 07:23:28;;;;;;;15.50;8.30;;;;;;;5.84;100.00;97963.70;271437;1269;22700;-89
2024/03/24 07:29:31;;;;;;;14.90;9.10;;;;;;;5.80;100.00;97970.09;270606;1269;25396;-88
2024/03/24 07:35:33;;;;;;;20.40;10.90;;;;;;;5.74;100.00;97965.27;270956;1270;22542;-91
2024/03/24 07:41:35;;;;;;;19.30;11.90;;;;;;;5.84;100.00;97964.88;272131;1269;22266;-91
2024/03/24 07:47:37;;;;;;;20.30;11.70;;;;;;;5.75;100.00;97966.91;272588;1270;22677;-90
2024/03/24 07:53:39;;;;;;;20.00;10.30;;;;;;;5.66;100.00;97966.38;272513;1270;23700;-90
2024/03/24 07:59:43;;;;;;;13.70;8.90;;;;;;;5.74;100.00;97959.98;270484;1270;22535;-89
2024/03/24 08:05:44;;;;;;;15.30;9.40;;;;;;;5.78;100.00;97963.69;271722;1270;22376;-91
2024/03/24 08:11:49;;;;;;;12.50;8.20;;;;;;;5.60;99.96;97973.20;271244;1269;22552;-89
2024/03/24 08:17:53;;;;;;;11.30;7.90;;;;;;;5.09;99.99;97981.02;270991;1269;22389;-90
2024/03/24 08:24:04;;;;;;;15.90;8.30;;;;;;;4.85;100.00;97984.51;271783;1270;22410;-89
2024/03/24 08:30:08;;;;;;;14.20;7.90;;;;;;;4.82;100.00;97985.99;270655;1270;22277;-89
2024/03/24 08:36:11;;;;;;;15.30;8.40;;;;;;;4.83;100.00;97984.00;269415;1270;22652;-91
2024/03/24 08:42:14;;;;;;;16.90;9.40;;;;;;;4.96;100.00;97980.05;270358;1267;23255;-90
2024/03/24 08:48:24;;;;;;;12.30;8.70;;;;;;;5.23;100.00;97978.17;269803;1270;23643;-89
2024/03/24 08:54:36;;;;;;;13.90;9.60;;;;;;;5.41;100.00;97978.98;270087;1269;22679;-89
2024/03/24 09:00:47;;;;;;;14.70;9.00;;;;;;;5.82;100.00;97970.50;269493;1269;22572;-90
2024/03/24 09:06:49;;;;;;;16.00;10.50;;;;;;;6.27;100.00;97964.71;270104;1269;22715;-89
2024/03/24 09:12:57;;;;;;;13.20;8.90;;;;;;;6.28;100.00;97967.38;270362;1270;22722;-90
2024/03/24 09:18:59;;;;;;;12.60;8.50;;;;;;;5.88;100.00;97983.23;270524;1269;22572;-90
2024/03/24 09:25:05;;;;;;;10.60;6.60;;;;;;;5.47;100.00;98005.12;270267;1269;22562;-91
2024/03/24 09:31:11;;;;;;;11.30;7.00;;;;;;;4.95;100.00;98015.75;270727;1269;24055;-91
2024/03/24 09:37:17;;;;;;;6.80;4.20;;;;;;;4.54;100.00;98025.98;270731;1253;24180;-90
2024/03/24 09:43:20;;;;;;;7.50;3.60;;;;;;;4.15;100.00;98019.55;271524;1270;22565;-90
2024/03/24 09:49:23;;;;;;;6.10;3.80;;;;;;;3.88;100.00;98014.37;270862;1255;22539;-91
2024/03/24 09:55:31;;;;;;;7.30;4.80;;;;;;;3.79;100.00;98007.97;270398;1269;22594;-91
2024/03/24 10:01:40;;;;;;;7.10;4.30;;;;;;;3.90;100.00;97998.23;270406;1269;22576;-89
2024/03/24 10:07:45;;;;;;;7.30;4.20;;;;;;;4.60;100.00;97986.13;270123;1269;22565;-90
2024/03/24 10:13:51;;;;;;;5.50;3.50;;;;;;;5.75;100.00;97983.58;270174;1269;24266;-91
2024/03/24 10:19:53;;;;;;;4.70;3.50;;;;;;;7.17;100.00;97970.77;270166;1269;22598;-89
2024/03/24 10:25:58;;;;;;;4.70;3.40;;;;;;;7.90;100.00;97964.38;269501;1269;25525;-89
2024/03/24 10:32:10;;;;;;;5.20;2.90;;;;;;;8.23;99.82;97960.08;270476;1269;22513;-90
2024/03/24 10:38:12;;;;;;;6.70;3.00;;;;;;;7.96;98.78;97954.42;269780;1269;22592;-90
2024/03/24 10:44:25;;;;;;;6.70;3.50;;;;;;;8.32;99.11;97947.26;269260;1269;22759;-91
2024/03/24 10:50:27;;;;;;;5.70;3.70;;;;;;;9.03;98.72;97938.66;269572;1269;23800;-89
2024/03/24 10:56:32;;;;;;;5.40;4.00;;;;;;;9.66;96.70;97928.15;271162;1269;22491;-90
2024/03/24 11:02:36;;;;;;;4.40;3.20;;;;;;;10.62;95.95;97918.14;272386;1269;22342;-90
2024/03/24 11:08:38;;;;;;;5.10;3.50;;;;;;;11.22;92.32;97914.44;269897;1269;23162;-90
2024/03/24 11:14:40;;;;;;;5.30;3.30;;;;;;;10.77;90.16;97916.65;270814;1266;24008;-92
2024/03/24 11:20:42;;;;;;;3.40;2.90;;;;;;;10.05;90.40;97913.89;270017;1259;22820;-90
2024/03/24 11:26:46;;;;;;;6.00;3.00;;;;;;;9.35;89.12;97919.94;271046;1269;23468;-91
2024/03/24 11:32:59;;;;;;;4.70;3.80;;;;;;;9.18;89.73;97918.56;270233;1270;25505;-91
2024/03/24 11:39:11;;;;;;;2.40;1.90;;;;;;;8.79;88.54;97954.77;269614;1264;22584;-91
2024/03/24 11:45:34;;;;;;;2.20;1.70;;;;;;;7.16;87.56;97962.41;270418;1269;23974;-91
2024/03/24 11:51:37;;;;;;;3.40;1.60;;;;;;;5.87;89.38;97932.46;271204;1269;22572;-91
2024/03/24 11:57:42;;;;;;;2.60;1.50;;;;;;;5.56;91.71;97922.27;270526;1269;24379;-91
2024/03/24 12:03:48;;;;;;;5.10;2.40;;;;;;;5.84;95.05;97934.52;270926;1269;25454;-93
2024/03/24 12:09:55;;;;;;;2.70;2.20;;;;;;;6.32;95.16;97935.42;270227;1269;25454;-91
2024/03/24 12:15:59;;;;;;;2.30;1.70;;;;;;;6.35;94.52;97933.52;269621;1269;22535;-91
2024/03/24 12:22:05;;;;;;;3.50;2.30;;;;;;;6.20;94.85;97930.02;269707;1270;22629;-91
2024/03/24 12:28:14;;;;;;;5.20;2.60;;;;;;;6.14;95.41;97920.16;270583;1269;22667;-91
2024/03/24 12:34:19;;;;;;;5.40;3.10;;;;;;;6.30;96.26;97905.27;270308;1270;23437;-89
2024/03/24 12:40:22;;;;;;;6.60;3.40;;;;;;;6.77;96.45;97891.80;268872;1269;2391762;-91
2024/03/24 12:46:29;;;;;;;6.60;4.00;;;;;;;7.27;95.19;97887.59;270552;1269;22556;-90
2024/03/24 12:52:31;;;;;;;;;;;;;;;7.48;94.36;97878.99;270144;1269;22500;-90
2024/03/24 12:58:39;;;;;;;4.10;2.90;;;;;;;7.75;93.13;97867.46;271383;1269;22600;-90
2024/03/24 13:04:41;;;;;;;3.60;2.40;;;;;;;7.91;91.76;97863.31;270776;1269;24153;-88
2024/03/24 13:10:42;;;;;;;5.10;2.60;;;;;;;7.85;90.49;97857.15;271484;1269;22354;-90
2024/03/24 13:16:45;;;;;;;3.10;2.30;;;;;;;7.85;89.45;97844.38;271162;1270;22555;-90
2024/03/24 13:22:49;;;;;;;4.00;2.40;;;;;;;8.08;89.39;97834.96;269568;1269;22606;-91
2024/03/24 13:28:51;;;;;;;3.60;2.50;;;;;;;8.43;89.29;97831.06;269255;1269;22529;-89
2024/03/24 13:34:54;;;;;;;5.10;2.30;;;;;;;8.59;86.16;97829.60;270007;1269;22599;-88
2024/03/24 13:41:06;;;;;;;3.50;2.80;;;;;;;8.48;85.43;97829.45;269946;1269;26854;-91
2024/03/24 13:47:16;;;;;;;4.70;3.10;;;;;;;8.38;84.86;97819.38;270711;1269;22929;-88
2024/03/24 13:53:20;;;;;;;4.50;3.00;;;;;;;8.38;84.52;97818.28;271264;1270;23561;-89
2024/03/24 13:59:22;;;;;;;4.60;3.00;;;;;;;8.40;84.43;97808.30;270809;1269;23145;-91
2024/03/24 14:05:27;;;;;;;7.50;3.00;;;;;;;8.53;84.53;97800.76;270868;1266;24260;-90
2024/03/24 14:11:29;;;;;;;5.30;2.70;;;;;;;8.75;84.27;97792.41;269515;1269;23431;-90
2024/03/24 14:18:01;;;;;;;3.70;3.00;;;;;;;8.94;82.83;97789.18;270194;1269;22637;-91
2024/03/24 14:24:13;;;;;;;5.60;2.70;;;;;;;9.00;81.31;97783.24;270309;1269;22552;-90
2024/03/24 14:30:15;;;;;;;4.10;3.00;;;;;;;9.20;81.21;97777.73;269917;1269;24304;-91
2024/03/24 14:36:23;;;;;;;4.70;3.10;;;;;;;9.30;80.96;97770.23;269846;1269;24269;-90
2024/03/24 14:42:55;;;;;;;4.20;2.50;;;;;;;9.34;80.04;97757.73;269572;1269;22582;-90
2024/03/24 14:48:59;;;;;;;4.30;2.50;;;;;;;9.23;78.79;97754.55;269486;1269;22578;-91
2024/03/24 14:55:01;;;;;;;7.50;3.00;;;;;;;9.18;79.00;97750.67;270369;1269;22572;-90
2024/03/24 15:01:10;;;;;;;5.70;3.20;;;;;;;9.16;78.22;97741.09;272495;1265;23784;-89
2024/03/24 15:07:35;;;;;;;7.50;3.10;;;;;;;9.14;77.60;97732.44;272539;1269;22607;-89
2024/03/24 15:13:48;;;;;;;4.70;2.50;;;;;;;9.13;77.77;97729.86;270748;1269;22571;-90
2024/03/24 15:20:22;;;;;;;4.20;2.00;;;;;;;9.15;76.90;97726.89;270833;1269;22537;-92
2024/03/24 15:27:06;;;;;;;;;;;;;;;;;;;;;
2024/03/24 15:33:42;;;;;;;;;;;;;;;;;;;;;
2024/03/24 15:39:48;;;;;;;3.60;1.40;;;;;;;8.74;73.40;97712.02;263990;1269;10001424;-91
2024/03/24 15:45:51;;;;;;;3.80;1.50;;;;;;;8.57;73.22;97711.98;270565;1269;22554;-91
2024/03/24 15:51:57;;;;;;;4.10;1.60;;;;;;;8.37;72.55;97715.44;269905;1270;22570;-90
2024/03/24 15:58:36;;;;;;;3.70;1.70;;;;;;;8.17;72.28;97713.70;269898;1269;22559;-90
2024/03/24 16:04:39;;;;;;;7.40;1.80;;;;;;;7.94;72.21;97715.08;269722;1269;23593;-91
2024/03/24 16:11:00;;;;;;;2.70;1.60;;;;;;;7.72;72.13;97724.09;272232;1269;23792;-90
2024/03/24 16:17:04;;;;;;;3.80;2.00;;;;;;;7.52;70.86;97734.92;272456;1268;22320;-90
2024/03/24 16:23:06;;;;;;;5.30;1.90;;;;;;;7.36;70.94;97742.50;272394;1269;23350;-90
2024/03/24 16:29:11;;;;;;;5.90;1.90;;;;;;;7.23;71.34;97745.80;272485;1269;22941;-91
2024/03/24 16:35:13;;;;;;;5.90;2.20;;;;;;;7.13;71.08;97743.42;272676;1269;22286;-90
2024/03/24 16:41:16;;;;;;;6.20;2.10;;;;;;;7.09;71.02;97738.50;272709;1269;22370;-90
2024/03/24 16:47:23;;;;;;;4.50;2.10;;;;;;;7.09;71.27;97732.90;272733;1269;22362;-90
2024/03/24 16:53:24;;;;;;;4.40;2.80;;;;;;;7.05;71.65;97730.95;272688;1270;22484;-89
2024/03/24 16:59:27;;;;;;;5.50;2.30;;;;;;;7.00;71.93;97727.81;272734;1269;22536;-90
2024/03/24 17:05:29;;;;;;;4.30;2.30;;;;;;;6.96;72.77;97725.39;272841;1269;22352;-89
2024/03/24 17:11:32;;;;;;;6.20;2.20;;;;;;;6.85;72.35;97726.34;272570;1269;22415;-90
2024/03/24 17:17:35;;;;;;;6.30;2.80;;;;;;;6.76;72.40;97732.73;272683;1269;22403;-90
2024/03/24 17:23:42;;;;;;;6.10;3.00;;;;;;;6.67;72.53;97737.48;272553;1270;22267;-90
2024/03/24 17:29:44;;;;;;;11.10;4.10;;;;;;;6.55;72.55;97740.27;272892;1269;22401;-90
2024/03/24 17:35:46;;;;;;;11.60;5.60;;;;;;;6.49;72.65;97747.16;272685;1269;22260;-90
2024/03/24 17:41:51;;;;;;;10.90;5.90;;;;;;;6.50;72.66;97747.64;271969;1270;22278;-90
2024/03/24 17:47:56;;;;;;;9.80;4.50;;;;;;;6.46;72.60;97752.27;272583;1259;22280;-89
2024/03/24 17:53:58;;;;;;;13.80;6.10;;;;;;;6.39;72.46;97751.43;273090;1270;22300;-90
2024/03/24 18:00:05;;;;;;;17.40;7.00;;;;;;;6.28;72.37;97758.81;270146;1270;23532;-90
2024/03/24 18:06:25;;;;;;;16.00;8.40;;;;;;;6.13;72.41;97762.48;272342;1269;22397;-90
2024/03/24 18:12:50;;;;;;;17.60;8.60;;;;;;;6.02;72.38;97763.63;272408;1269;23380;-90
2024/03/24 18:18:55;;;;;;;19.40;9.80;;;;;;;5.94;72.54;97767.11;272550;1270;22780;-90
2024/03/24 18:24:57;;;;;;;22.70;10.90;;;;;;;5.89;72.74;97768.00;272074;1269;22537;-90
2024/03/24 18:31:02;;;;;;;19.20;9.00;;;;;;;5.85;73.40;97764.85;271198;1269;26638;-90
2024/03/24 18:37:05;;;;;;;23.00;9.90;;;;;;;5.75;74.22;97766.27;270516;1270;22525;-90
2024/03/24 18:43:08;;;;;;;25.60;11.10;;;;;;;5.72;75.13;97765.08;272614;1269;23278;-89
2024/03/24 18:49:11;;;;;;;23.40;10.30;;;;;;;5.65;74.34;97762.69;270469;1269;22618;-89
2024/03/24 18:55:13;;;;;;;21.40;9.60;;;;;;;5.61;74.51;97773.34;270629;1269;22871;-89
2024/03/24 19:01:15;;;;;;;20.80;9.30;;;;;;;5.61;76.12;97781.64;271874;1269;22274;-90
2024/03/24 19:07:18;;;;;;;20.10;9.30;;;;;;;5.64;76.30;97788.89;272256;1269;22537;-89
2024/03/24 19:13:22;;;;;;;22.30;9.70;;;;;;;5.68;76.32;97789.01;270766;1269;22726;-87
2024/03/24 19:19:34;;;;;;;20.40;10.20;;;;;;;5.66;77.18;97790.45;271835;1269;23060;-89
2024/03/24 19:25:36;;;;;;;25.30;12.80;;;;;;;5.58;77.72;97793.70;272495;1269;23113;-89
2024/03/24 19:31:38;;;;;;;25.70;12.70;;;;;;;5.56;79.05;97789.58;272645;1269;22333;-90
2024/03/24 19:37:40;;;;;;;22.70;11.40;;;;;;;5.54;79.78;97783.58;272660;1269;22348;-89
2024/03/24 19:43:42;;;;;;;27.90;12.70;;;;;;;5.48;79.84;97779.71;272747;1269;22468;-90
2024/03/24 19:49:44;;;;;;;26.80;11.70;;;;;;;5.41;79.53;97777.37;272544;1269;22221;-90
2024/03/24 19:55:46;;;;;;;24.50;11.90;;;;;;;5.34;80.00;97772.56;272694;1269;23487;-89
2024/03/24 20:01:49;;;;;;;22.90;12.30;;;;;;;5.19;80.20;97778.65;272524;1269;22395;-89
2024/03/24 20:07:51;;;;;;;18.40;8.40;;;;;;;4.97;80.00;97782.70;272625;1269;22351;-90
2024/03/24 20:13:53;;;;;;;19.30;8.30;;;;;;;4.74;79.92;97777.88;272704;1269;22453;-89
2024/03/24 20:20:00;;;;;;;17.60;8.30;;;;;;;4.57;80.76;97774.23;271642;1262;23981;-90
2024/03/24 20:26:02;;;;;;;12.50;5.80;;;;;;;4.40;80.38;97774.73;269584;1269;25256;-90
2024/03/24 20:32:05;;;;;;;10.50;4.70;;;;;;;4.23;80.32;97774.39;271123;1259;22352;-90
2024/03/24 20:38:09;;;;;;;12.20;5.50;;;;;;;4.18;80.53;97771.12;272713;1269;22281;-90
2024/03/24 20:44:11;;;;;;;12.80;5.40;;;;;;;4.14;80.73;97773.16;271804;1269;23015;-89
2024/03/24 20:50:13;;;;;;;13.70;4.70;;;;;;;4.07;81.31;97771.80;272680;1269;22288;-90
2024/03/24 20:56:18;;;;;;;11.50;4.40;;;;;;;3.99;81.81;97769.48;272614;1269;22464;-89
2024/03/24 21:02:21;;;;;;;9.80;4.70;;;;;;;3.95;82.69;97762.84;272721;1269;22703;-89
2024/03/24 21:08:23;;;;;;;8.30;4.10;;;;;;;3.91;83.39;97760.38;272706;1270;22252;-90
2024/03/24 21:14:25;;;;;;;9.80;4.00;;;;;;;3.90;83.59;97757.43;272541;1269;22351;-89
2024/03/24 21:20:27;;;;;;;11.10;4.20;;;;;;;3.90;83.63;97751.46;272597;1269;22393;-89
2024/03/24 21:26:29;;;;;;;11.40;3.90;;;;;;;3.89;83.53;97752.08;272505;1259;22281;-89
2024/03/24 21:32:32;;;;;;;9.80;3.90;;;;;;;3.90;83.90;97753.63;272550;1269;22410;-90
2024/03/24 21:44:54;;;;;;;10.30;4.30;;;;;;;3.86;85.09;97745.06;272572;1269;22941;-89
2024/03/24 21:50:56;;;;;;;6.90;3.20;;;;;;;3.83;84.84;97741.98;272762;1269;23354;-90
2024/03/24 21:56:59;;;;;;;8.20;3.30;;;;;;;3.83;84.53;97744.46;272723;1269;22471;-89
2024/03/24 22:03:31;;;;;;;8.60;3.10;;;;;;;3.84;84.84;97739.70;269843;1270;22683;-90
2024/03/24 22:10:11;;;;;;;8.70;3.20;;;;;;;3.83;85.45;97723.96;270031;1269;22540;-88
2024/03/24 22:16:22;;;;;;;8.60;3.10;;;;;;;3.76;85.63;97720.91;269679;1268;23689;-89
2024/03/24 22:22:27;;;;;;;9.80;3.10;;;;;;;3.68;85.31;97717.45;269418;1269;22603;-91
2024/03/24 22:28:32;;;;;;;8.60;3.30;;;;;;;3.63;85.03;97710.31;271266;1269;22487;-89
2024/03/24 22:34:47;;;;;;;8.10;3.30;;;;;;;3.63;84.73;97711.48;272638;1270;22320;-90
2024/03/24 22:41:02;;;;;;;9.20;3.60;;;;;;;3.59;84.36;97708.92;269855;1269;23307;-89
2024/03/24 22:47:12;;;;;;;8.80;3.40;;;;;;;3.57;84.31;97704.25;269211;1270;25358;-89
2024/03/24 22:53:14;;;;;;;6.70;3.10;;;;;;;3.54;84.70;97701.48;270123;1270;22574;-90
2024/03/24 22:59:17;;;;;;;8.60;3.40;;;;;;;3.40;85.05;97694.52;271436;1269;22359;-89
2024/03/24 23:05:23;;;;;;;8.60;3.50;;;;;;;3.31;85.33;97694.33;272578;1270;23347;-91
2024/03/24 23:12:04;;;;;;;6.70;2.90;;;;;;;3.19;85.57;97692.35;272587;1270;22264;-91
2024/03/24 23:18:18;;;;;;;10.20;3.60;;;;;;;3.08;85.83;97688.98;272557;1270;22330;-89
2024/03/24 23:24:25;;;;;;;7.70;3.20;;;;;;;2.97;86.34;97688.05;273064;1272;22335;-89
2024/03/24 23:30:46;;;;;;;7.00;3.00;;;;;;;2.86;86.54;97690.14;272585;1263;23081;-90
2024/03/24 23:36:52;;;;;;;6.00;2.80;;;;;;;2.78;86.79;97689.67;272730;1270;22475;-88
2024/03/24 23:42:55;;;;;;;8.60;3.10;;;;;;;2.70;86.96;97688.52;272097;1260;22548;-89
2024/03/24 23:49:02;;;;;;;7.10;3.10;;;;;;;2.61;87.20;97688.72;271016;1269;22554;-89
2024/03/24 23:55:09;;;;;;;8.30;3.40;;;;;;;2.50;87.47;97692.32;271155;1270;23593;-89
